Mc Clellan-Palomar Airport
KCRQ : now visible

Airfield :











YOU CAN JOIN US ON...

 
LOGIN :

Register | Disclaimer

   EN    FR    IT 

 









Legend :    VFR   Marginal VFR   IFR   Intensive IFR   Very Intensive IFR
Visi :
Ceiling :
>= 8 km
>= 3000ft
5 to 8 km
1000 to 3000 ft
1500m to 5 km
500 to 1000 ft
800 to 1500m
200 to 500 ft
< 800m
< 200 ft
Symbols :   Thunderstorms  Fog  Heavy snow  Heavy precipitations  Wind > 20 kt






- Airport Elevation : 331 ft


KCRQ - Mc Clellan-Palomar

CURRENT METAR :
  • 191553Z 34004KT 3SM BR OVC005 12/11 A3006 RMK AO2 SLP179 T01220106

EXPIRED METARs :
  • 191549Z 36003KT 3SM BR OVC005 12/11 A3006 RMK AO2
  • 191509Z 00000KT 2 1/2SM BR OVC005 12/11 A3005 RMK AO2 T01220111
  • 191453Z 00000KT 2SM BR OVC005 12/11 A3004 RMK AO2 SLP173 T01220111 53011
  • 191353Z AUTO 00000KT 4SM BR OVC006 13/11 A3002 RMK AO2 SLP164 T01280111

TAF KCRQ
Valid from the 19 at 12:00 until the 20 at 12:00 UTC


191124Z 1912/2012 VRB04KT 5SM BR OVC007
FM191800 25007KT P6SM FEW010
FM200200 VRB04KT P6SM SCT010
FM200400 VRB04KT 5SM BR OVC006
TEMPO 2008/2012 SCT010



MET'MAP, your aeronautical weather chart ! - Copyright ORBIFLY December 2007 - Disclaimer

ORBIFLY MET'MAP TEAM :

Programming & Development : Alexandra Zaïnal
Concept & original design : Baudouin d'Aumeries
Assistance for programming : Marc-Olivier Méhu
Technical & hardware support : Manuel Goepfert

Contact : metmap@orbifly.com




SOURCES & CREDITS :

   NOAA       Earth
Advisory